createdAt,value
2023-05-17T00:02:24.704Z,96789.81
2023-05-17T00:05:04.930Z,96781.69
2023-05-17T00:07:34.541Z,96787.84
2023-05-17T00:10:02.919Z,96787.47
2023-05-17T00:12:32.865Z,96795.38
2023-05-17T00:15:03.464Z,96795.63
2023-05-17T00:17:31.591Z,96789.53
2023-05-17T00:20:00.089Z,96791.53
2023-05-17T00:22:28.603Z,96793.75
2023-05-17T00:24:57.948Z,96793.59
2023-05-17T00:27:26.372Z,96796.75
2023-05-17T00:29:59.194Z,96782.84
2023-05-17T00:32:29.838Z,96797.50
2023-05-17T00:35:00.658Z,96806.81
2023-05-17T00:37:28.799Z,96799.50
2023-05-17T00:39:56.928Z,96806.00
2023-05-17T00:42:33.732Z,96819.38
2023-05-17T00:45:08.928Z,96817.19
2023-05-17T00:47:38.981Z,96820.28
2023-05-17T00:50:08.098Z,96816.66
2023-05-17T00:52:38.133Z,96816.09
2023-05-17T00:55:07.344Z,96827.28
2023-05-17T00:57:43.935Z,96819.41
2023-05-17T01:00:17.845Z,96813.69
2023-05-17T01:02:55.003Z,96815.78
2023-05-17T01:05:28.782Z,96777.03
2023-05-17T01:07:57.190Z,96812.72
2023-05-17T01:10:29.230Z,96826.00
2023-05-17T01:13:13.523Z,96821.53
2023-05-17T01:15:51.223Z,96827.34
2023-05-17T01:18:23.949Z,96820.22
2023-05-17T01:20:52.699Z,96835.94
2023-05-17T01:23:33.830Z,96815.00
2023-05-17T01:26:09.186Z,96834.72
2023-05-17T01:28:42.441Z,96835.56
2023-05-17T01:31:14.493Z,96830.25
2023-05-17T01:33:42.936Z,96839.63
2023-05-17T01:36:16.392Z,96836.16
2023-05-17T01:38:47.127Z,96837.91
2023-05-17T01:41:18.830Z,96717.03
2023-05-17T01:43:52.427Z,96845.59
2023-05-17T01:46:25.181Z,96845.72
2023-05-17T01:48:58.552Z,96843.56
2023-05-17T01:51:36.547Z,96847.25
2023-05-17T01:54:09.548Z,96846.72
2023-05-17T01:56:40.075Z,96852.50
2023-05-17T01:59:11.304Z,96854.78
2023-05-17T02:01:40.112Z,96849.56
2023-05-17T02:04:08.641Z,96860.66
2023-05-17T02:06:41.945Z,96855.25
2023-05-17T02:09:11.658Z,96863.63
2023-05-17T02:11:39.818Z,96853.75
2023-05-17T02:14:13.965Z,96857.41
2023-05-17T02:16:52.116Z,96867.22
2023-05-17T02:19:22.521Z,96870.38
2023-05-17T02:21:57.480Z,96864.09
2023-05-17T02:24:26.768Z,96859.72
2023-05-17T02:26:56.867Z,96863.13
2023-05-17T02:29:26.465Z,96861.34
2023-05-17T02:31:54.862Z,96860.28
2023-05-17T02:34:28.327Z,96840.34
2023-05-17T02:37:00.180Z,96865.94
2023-05-17T02:39:28.052Z,96865.03
2023-05-17T02:41:58.818Z,96855.19
2023-05-17T02:44:30.163Z,96865.66
2023-05-17T02:47:01.718Z,96849.22
2023-05-17T02:49:34.652Z,96838.25
2023-05-17T02:52:07.594Z,96860.28
2023-05-17T02:54:39.472Z,96863.19
2023-05-17T02:57:09.664Z,96864.81
2023-05-17T02:59:41.427Z,96867.97
2023-05-17T03:02:09.666Z,96867.09
2023-05-17T03:04:39.501Z,96870.69
2023-05-17T03:07:08.499Z,96871.59
2023-05-17T03:09:36.334Z,96870.59
2023-05-17T03:12:07.862Z,96885.19
2023-05-17T03:14:36.262Z,96885.88
2023-05-17T03:17:06.277Z,96888.88
2023-05-17T03:19:34.605Z,96879.06
2023-05-17T03:22:05.151Z,96875.03
2023-05-17T03:24:33.915Z,96883.16
2023-05-17T03:27:02.276Z,96877.47
2023-05-17T03:29:30.685Z,96891.91
2023-05-17T03:32:19.216Z,96898.13
2023-05-17T03:34:49.514Z,96875.44
2023-05-17T03:37:20.195Z,96884.66
2023-05-17T03:39:50.520Z,96892.88
2023-05-17T03:42:20.887Z,96892.72
2023-05-17T03:44:48.890Z,96893.78
2023-05-17T03:47:19.665Z,96893.31
2023-05-17T03:49:56.740Z,96892.94
2023-05-17T03:52:26.828Z,96902.38
2023-05-17T03:54:57.059Z,96890.31
2023-05-17T03:57:26.829Z,96617.59
2023-05-17T03:59:55.187Z,96897.09
2023-05-17T04:02:26.123Z,96910.84
2023-05-17T04:05:00.873Z,96910.78
2023-05-17T04:07:32.258Z,96918.44
2023-05-17T04:10:03.797Z,96911.34
2023-05-17T04:12:31.937Z,96920.81
2023-05-17T04:15:00.172Z,96916.69
2023-05-17T04:17:41.674Z,96925.50
2023-05-17T04:20:11.169Z,96929.84
2023-05-17T04:22:40.548Z,96928.03
2023-05-17T04:25:13.730Z,96930.66
2023-05-17T04:27:46.662Z,96933.72
2023-05-17T04:30:15.118Z,96912.06
2023-05-17T04:32:47.044Z,96941.53
2023-05-17T04:35:19.269Z,96942.81
2023-05-17T04:38:05.932Z,96802.56
2023-05-17T04:40:37.459Z,96941.44
2023-05-17T04:43:07.235Z,96944.56
2023-05-17T04:45:35.853Z,96958.53
2023-05-17T04:48:06.496Z,96957.06
2023-05-17T04:50:36.165Z,96953.31
2023-05-17T04:53:10.736Z,96946.13
2023-05-17T04:55:38.688Z,96955.16
2023-05-17T04:58:18.614Z,96958.13
2023-05-17T05:00:48.190Z,96960.91
2023-05-17T05:03:20.727Z,96961.47
2023-05-17T05:05:55.602Z,96917.69
2023-05-17T05:08:25.911Z,96964.84
2023-05-17T05:11:00.480Z,96975.84
2023-05-17T05:13:29.359Z,96967.94
2023-05-17T05:16:01.555Z,96946.41
2023-05-17T05:18:30.858Z,96980.16
2023-05-17T05:21:00.808Z,96979.66
2023-05-17T05:23:28.825Z,96981.94
2023-05-17T05:25:59.001Z,96982.72
2023-05-17T05:28:31.700Z,96991.13
2023-05-17T05:31:02.457Z,96993.72
2023-05-17T05:33:32.943Z,96993.47
2023-05-17T05:36:02.802Z,97002.88
2023-05-17T05:38:35.163Z,97049.31
2023-05-17T05:41:04.044Z,96963.97
2023-05-17T05:43:33.702Z,97010.94
2023-05-17T05:46:01.516Z,97005.59
2023-05-17T05:48:32.305Z,96978.03
2023-05-17T05:51:03.987Z,97017.44
2023-05-17T05:53:38.845Z,97021.59
2023-05-17T05:56:10.009Z,97012.19
2023-05-17T05:58:40.890Z,97012.47
2023-05-17T06:01:15.397Z,97017.25
2023-05-17T06:03:47.384Z,97020.72
2023-05-17T06:06:19.889Z,97026.94
2023-05-17T06:08:49.827Z,97039.22
2023-05-17T06:11:24.474Z,97042.53
2023-05-17T06:13:55.834Z,97040.25
2023-05-17T06:16:23.880Z,97047.31
2023-05-17T06:18:55.890Z,97034.13
2023-05-17T06:21:28.326Z,97031.34
2023-05-17T06:23:57.842Z,97059.28
2023-05-17T06:26:29.345Z,97075.41
2023-05-17T06:28:57.820Z,97057.72
2023-05-17T06:31:29.729Z,97057.66
2023-05-17T06:33:58.327Z,97005.97
2023-05-17T06:36:32.403Z,97068.78
2023-05-17T06:39:01.266Z,97065.56
2023-05-17T06:41:30.756Z,97063.75
2023-05-17T06:43:58.742Z,97064.34
2023-05-17T06:46:28.537Z,97064.97
2023-05-17T06:48:56.809Z,97066.06
2023-05-17T06:51:26.715Z,97065.88
2023-05-17T06:53:56.917Z,97071.53
2023-05-17T06:56:25.004Z,97071.25
2023-05-17T06:59:00.993Z,97065.56
2023-05-17T07:01:30.344Z,97056.94
2023-05-17T07:03:58.732Z,97067.16
2023-05-17T07:06:27.992Z,97056.97
2023-05-17T07:09:04.210Z,97059.59
2023-05-17T07:11:34.827Z,97077.13
2023-05-17T07:14:03.509Z,97081.41
2023-05-17T07:16:31.806Z,97116.34
2023-05-17T07:19:05.566Z,97079.19
2023-05-17T07:21:36.898Z,97082.72
2023-05-17T07:24:10.014Z,97071.97
2023-05-17T07:26:38.780Z,97067.53
2023-05-17T07:29:07.147Z,97061.09
2023-05-17T07:31:39.564Z,97063.53
2023-05-17T07:34:07.902Z,97081.28
2023-05-17T07:36:36.222Z,97076.06
2023-05-17T07:39:05.356Z,97083.75
2023-05-17T07:41:35.248Z,97074.94
2023-05-17T07:44:07.457Z,97089.97
2023-05-17T07:46:36.962Z,97089.56
2023-05-17T07:49:06.166Z,97083.78
2023-05-17T07:51:34.619Z,97086.91
2023-05-17T07:54:03.792Z,97083.31
2023-05-17T07:56:33.870Z,97058.19
2023-05-17T07:59:04.686Z,97089.75
2023-05-17T08:01:33.351Z,97087.75
2023-05-17T08:04:01.794Z,97084.75
2023-05-17T08:06:33.943Z,97091.44
2023-05-17T08:09:02.999Z,97092.09
2023-05-17T08:11:48.283Z,97089.88
2023-05-17T08:14:23.300Z,97089.47
2023-05-17T08:16:57.181Z,97086.34
2023-05-17T08:19:27.267Z,97085.91
2023-05-17T08:21:58.886Z,97086.00
2023-05-17T08:24:29.347Z,97092.41
2023-05-17T08:26:58.958Z,97091.06
2023-05-17T08:29:29.982Z,97086.44
2023-05-17T08:31:58.219Z,97072.53
2023-05-17T08:34:28.450Z,97092.81
2023-05-17T08:36:57.173Z,97074.97
2023-05-17T08:39:26.147Z,97098.78
2023-05-17T08:41:59.675Z,97055.38
2023-05-17T08:44:31.175Z,97085.00
2023-05-17T08:47:03.680Z,97095.06
2023-05-17T08:49:33.626Z,96994.44
2023-05-17T08:52:07.163Z,97082.72
2023-05-17T08:54:40.738Z,97077.66
2023-05-17T08:57:11.936Z,97081.25
2023-05-17T08:59:42.261Z,97077.66
2023-05-17T09:02:13.259Z,97081.47
2023-05-17T09:04:41.969Z,97076.06
2023-05-17T09:07:15.289Z,97072.28
2023-05-17T09:09:45.911Z,96934.19
2023-05-17T09:12:20.351Z,97067.88
2023-05-17T09:14:50.415Z,97079.22
2023-05-17T09:17:23.776Z,97058.41
2023-05-17T09:19:52.193Z,97089.59
2023-05-17T09:22:26.329Z,96998.47
2023-05-17T09:24:54.763Z,97072.81
2023-05-17T09:27:23.127Z,97090.41
2023-05-17T09:29:52.966Z,97087.47
2023-05-17T09:32:22.547Z,97082.34
2023-05-17T09:34:51.160Z,97076.94
2023-05-17T09:37:20.981Z,97045.97
2023-05-17T09:39:49.160Z,97065.09
2023-05-17T09:42:20.054Z,97030.50
2023-05-17T09:45:02.172Z,97081.84
2023-05-17T09:47:31.458Z,97072.84
2023-05-17T09:50:05.182Z,97070.81
2023-05-17T09:52:37.573Z,97075.25
2023-05-17T09:55:10.354Z,96836.59
2023-05-17T09:57:39.815Z,97049.38
2023-05-17T10:00:14.066Z,97047.13
2023-05-17T10:02:45.150Z,97052.66
2023-05-17T10:05:14.804Z,97060.44
2023-05-17T10:07:46.742Z,97049.63
2023-05-17T10:10:18.472Z,97052.56
2023-05-17T10:12:47.991Z,97065.28
2023-05-17T10:15:20.802Z,97062.03
2023-05-17T10:17:48.992Z,97022.50
2023-05-17T10:20:18.657Z,97069.22
2023-05-17T10:22:49.235Z,97061.75
2023-05-17T10:25:17.987Z,97080.69
2023-05-17T10:27:47.325Z,97050.59
2023-05-17T10:30:16.194Z,97062.31
2023-05-17T10:32:49.797Z,97060.44
2023-05-17T10:35:18.512Z,97067.31
2023-05-17T10:37:56.443Z,97055.91
2023-05-17T10:40:24.970Z,97060.16
2023-05-17T10:42:55.485Z,97063.63
2023-05-17T10:45:26.094Z,97068.66
2023-05-17T10:47:58.873Z,97085.28
2023-05-17T10:50:29.675Z,97087.13
2023-05-17T10:53:02.373Z,97082.19
2023-05-17T10:55:39.355Z,97086.00
2023-05-17T10:58:19.345Z,97077.44
2023-05-17T11:00:49.387Z,97080.00
2023-05-17T11:03:21.097Z,97046.19
2023-05-17T11:06:23.567Z,96856.66
2023-05-17T11:09:17.078Z,97042.16
2023-05-17T11:12:08.444Z,97103.16
2023-05-17T11:14:56.748Z,97092.38
2023-05-17T11:17:26.948Z,97099.44
2023-05-17T11:20:16.887Z,97106.19
2023-05-17T11:22:59.139Z,97083.72
2023-05-17T11:25:30.395Z,97086.78
2023-05-17T11:28:00.355Z,97089.88
2023-05-17T11:30:31.787Z,97069.72
2023-05-17T11:33:02.291Z,97082.50
2023-05-17T11:35:36.133Z,97062.09
2023-05-17T11:38:20.322Z,97049.06
2023-05-17T11:40:51.496Z,97075.69
2023-05-17T11:43:30.978Z,97085.19
2023-05-17T11:46:02.628Z,97081.81
2023-05-17T11:48:31.879Z,97043.50
2023-05-17T11:51:02.689Z,97106.38
2023-05-17T11:53:32.589Z,97004.75
2023-05-17T11:56:04.871Z,97062.69
2023-05-17T11:58:33.306Z,97130.97
2023-05-17T12:01:04.352Z,97074.88
2023-05-17T12:03:33.545Z,97112.31
2023-05-17T12:06:07.238Z,97072.59
2023-05-17T12:08:36.540Z,97077.72
2023-05-17T12:11:06.337Z,97076.56
2023-05-17T12:13:35.846Z,97081.94
2023-05-17T12:16:07.599Z,97061.25
2023-05-17T12:18:47.147Z,97075.34
2023-05-17T12:21:21.425Z,97073.44
2023-05-17T12:23:52.714Z,97074.53
2023-05-17T12:26:21.683Z,97068.16
2023-05-17T12:28:55.253Z,97070.28
2023-05-17T12:31:26.944Z,97075.59
2023-05-17T12:33:55.468Z,97027.19
2023-05-17T12:36:34.990Z,97072.41
2023-05-17T12:39:09.000Z,97052.97
2023-05-17T12:41:38.644Z,97064.69
2023-05-17T12:46:41.835Z,97073.75
2023-05-17T12:49:11.597Z,97060.16
2023-05-17T12:51:46.420Z,97063.91
2023-05-17T12:54:16.538Z,97056.19
2023-05-17T12:56:45.261Z,97057.75
2023-05-17T12:59:16.772Z,97013.59
2023-05-17T13:01:45.664Z,97058.03
2023-05-17T13:04:17.671Z,97038.31
2023-05-17T13:06:48.634Z,97055.25
2023-05-17T13:09:18.754Z,97054.19
2023-05-17T13:11:55.413Z,97046.63
2023-05-17T13:14:45.378Z,97056.28
2023-05-17T13:17:27.050Z,97053.19
2023-05-17T13:19:57.442Z,97045.25
2023-05-17T13:22:30.380Z,97044.16
2023-05-17T13:25:05.055Z,97001.69
2023-05-17T13:27:33.196Z,97051.63
2023-05-17T13:30:01.224Z,97043.56
2023-05-17T13:32:31.938Z,97053.72
2023-05-17T13:35:02.105Z,97049.25
2023-05-17T13:37:31.479Z,97053.09
2023-05-17T13:40:02.699Z,97051.59
2023-05-17T13:42:30.738Z,97033.81
2023-05-17T13:45:01.651Z,97027.19
2023-05-17T13:47:32.527Z,97060.97
2023-05-17T13:50:01.861Z,96943.63
2023-05-17T13:52:33.021Z,97058.31
2023-05-17T13:55:00.913Z,97089.47
2023-05-17T13:57:29.222Z,97054.03
2023-05-17T13:59:57.370Z,97061.50
2023-05-17T14:02:25.527Z,97013.88
2023-05-17T14:05:04.749Z,97060.16
2023-05-17T14:07:36.916Z,97057.50
2023-05-17T14:10:05.723Z,97047.66
2023-05-17T14:12:33.688Z,97062.56
2023-05-17T14:15:04.810Z,97061.22
2023-05-17T14:17:35.975Z,97056.41
2023-05-17T14:20:05.071Z,97045.97
2023-05-17T14:22:34.515Z,97036.31
2023-05-17T14:25:02.801Z,97054.56
2023-05-17T14:27:35.247Z,97049.53
2023-05-17T14:30:27.919Z,97048.75
2023-05-17T14:32:56.080Z,97060.97
2023-05-17T14:35:27.841Z,97059.09
2023-05-17T14:38:17.757Z,97056.38
2023-05-17T14:40:51.316Z,97066.81
2023-05-17T14:43:21.696Z,97075.59
2023-05-17T14:45:49.782Z,97055.41
2023-05-17T14:48:17.596Z,97057.50
2023-05-17T14:50:48.230Z,97060.72
2023-05-17T14:53:17.651Z,97063.38
2023-05-17T14:55:45.841Z,96989.34
2023-05-17T14:58:16.667Z,97054.81
2023-05-17T15:00:48.555Z,97049.50
2023-05-17T15:03:24.714Z,97057.50
2023-05-17T15:05:55.469Z,97047.94
2023-05-17T15:08:48.345Z,97034.63
2023-05-17T15:11:20.598Z,97055.91
2023-05-17T15:13:49.021Z,97056.16
2023-05-17T15:16:19.993Z,97057.22
2023-05-17T15:18:48.394Z,97052.19
2023-05-17T15:21:17.665Z,97050.88
2023-05-17T15:23:47.936Z,97061.25
2023-05-17T15:26:17.539Z,97062.84
2023-05-17T15:29:02.412Z,97044.47
2023-05-17T15:31:32.628Z,97055.88
2023-05-17T15:34:00.656Z,97057.75
2023-05-17T15:36:31.574Z,97047.34
2023-05-17T15:39:00.882Z,97010.16
2023-05-17T15:41:30.305Z,97048.19
2023-05-17T15:44:05.506Z,97055.13
2023-05-17T15:46:33.417Z,97040.22
2023-05-17T15:49:03.875Z,97058.53
2023-05-17T15:51:36.845Z,97013.03
2023-05-17T15:54:06.292Z,97042.72
2023-05-17T15:56:34.255Z,97042.97
2023-05-17T15:59:14.105Z,97033.88
2023-05-17T16:01:46.255Z,97021.66
2023-05-17T16:04:16.225Z,97021.13
2023-05-17T16:06:50.009Z,97030.19
2023-05-17T16:09:23.051Z,97032.88
2023-05-17T16:11:50.892Z,97033.81
2023-05-17T16:14:18.687Z,97025.25
2023-05-17T16:16:46.592Z,97037.22
2023-05-17T16:19:22.738Z,97027.66
2023-05-17T16:21:52.309Z,97035.13
2023-05-17T16:24:24.609Z,97010.97
2023-05-17T16:26:52.443Z,97030.88
2023-05-17T16:29:22.386Z,97035.94
2023-05-17T16:31:51.514Z,97038.03
2023-05-17T16:34:21.429Z,96966.69
2023-05-17T16:36:50.521Z,97033.75
2023-05-17T16:39:18.387Z,97016.09
2023-05-17T16:41:50.470Z,96993.59
2023-05-17T16:44:18.249Z,96991.47
2023-05-17T16:46:47.781Z,97030.06
2023-05-17T16:49:18.893Z,96994.38
2023-05-17T16:51:49.343Z,97036.09
2023-05-17T16:54:17.594Z,97029.91
2023-05-17T16:56:46.067Z,97033.34
2023-05-17T16:59:18.051Z,97032.59
2023-05-17T17:01:46.650Z,97032.81
2023-05-17T17:04:17.411Z,97024.91
2023-05-17T17:06:45.365Z,97031.25
2023-05-17T17:09:13.234Z,96981.28
2023-05-17T17:11:41.343Z,96996.63
2023-05-17T17:14:12.011Z,97020.53
2023-05-17T17:16:41.984Z,97021.13
2023-05-17T17:19:10.159Z,97011.66
2023-05-17T17:21:38.112Z,97027.06
2023-05-17T17:24:06.987Z,97024.84
2023-05-17T17:26:37.873Z,97020.63
2023-05-17T17:29:06.092Z,97029.66
2023-05-17T17:31:39.409Z,97023.34
2023-05-17T17:34:08.846Z,97034.75
2023-05-17T17:36:39.403Z,97035.53
2023-05-17T17:39:18.439Z,97022.34
2023-05-17T17:41:46.384Z,97039.91
2023-05-17T17:44:14.242Z,97036.22
2023-05-17T17:46:42.506Z,97037.28
2023-05-17T17:49:11.949Z,97037.81
2023-05-17T17:51:39.849Z,96924.53
2023-05-17T17:54:12.503Z,97032.69
2023-05-17T17:56:41.978Z,97032.69
2023-05-17T17:59:10.043Z,97027.09
2023-05-17T18:01:40.957Z,97042.00
2023-05-17T18:04:14.551Z,97018.34
2023-05-17T18:06:44.441Z,97035.03
2023-05-17T18:09:12.208Z,97023.09
2023-05-17T18:11:50.979Z,97028.88
2023-05-17T18:14:24.803Z,97034.97
2023-05-17T18:16:57.973Z,97038.19
2023-05-17T18:19:31.838Z,97042.75
2023-05-17T18:22:01.106Z,97038.00
2023-05-17T18:24:30.173Z,97027.34
2023-05-17T18:26:58.086Z,97039.09
2023-05-17T18:29:26.089Z,97036.94
2023-05-17T18:31:55.338Z,97046.75
2023-05-17T18:34:31.459Z,97041.50
2023-05-17T18:37:02.066Z,97049.16
2023-05-17T18:39:30.240Z,97047.84
2023-05-17T18:41:59.158Z,97047.63
2023-05-17T18:44:26.931Z,97056.41
2023-05-17T18:46:54.913Z,97058.84
2023-05-17T18:49:22.955Z,97050.03
2023-05-17T18:51:54.570Z,97053.78
2023-05-17T18:54:26.086Z,97047.13
2023-05-17T18:56:57.828Z,97006.44
2023-05-17T18:59:25.759Z,97035.66
2023-05-17T19:01:55.496Z,97052.16
2023-05-17T19:04:24.642Z,96976.09
2023-05-17T19:06:55.005Z,97056.94
2023-05-17T19:09:25.387Z,97059.09
2023-05-17T19:11:57.344Z,97059.59
2023-05-17T19:14:28.099Z,97054.03
2023-05-17T19:16:56.989Z,97067.59
2023-05-17T19:19:25.362Z,97062.28
2023-05-17T19:21:56.175Z,97069.22
2023-05-17T19:24:29.866Z,97063.91
2023-05-17T19:27:00.746Z,97070.25
2023-05-17T19:29:35.537Z,97075.84
2023-05-17T19:32:03.550Z,97078.81
2023-05-17T19:34:34.034Z,96984.63
2023-05-17T19:37:01.884Z,97092.13
2023-05-17T19:39:33.040Z,97091.31
2023-05-17T19:42:09.917Z,97090.50
2023-05-17T19:44:40.662Z,97096.09
2023-05-17T19:47:10.105Z,97092.34
2023-05-17T19:49:38.038Z,97093.41
2023-05-17T19:52:07.951Z,97069.19
2023-05-17T19:54:37.211Z,97088.31
2023-05-17T19:57:09.639Z,97086.72
2023-05-17T19:59:37.486Z,97090.72
2023-05-17T20:02:05.584Z,97093.16
2023-05-17T20:04:35.915Z,97091.00
2023-05-17T20:07:03.849Z,97072.69
2023-05-17T20:09:37.040Z,97091.03
2023-05-17T20:12:07.860Z,97055.81
2023-05-17T20:14:38.645Z,97094.72
2023-05-17T20:17:08.642Z,97093.41
2023-05-17T20:19:38.150Z,97091.03
2023-05-17T20:22:08.812Z,97077.69
2023-05-17T20:24:39.231Z,97068.03
2023-05-17T20:27:11.637Z,97101.06
2023-05-17T20:29:43.652Z,97094.69
2023-05-17T20:32:11.538Z,97061.63
2023-05-17T20:34:39.402Z,97101.59
2023-05-17T20:37:14.495Z,97096.03
2023-05-17T20:39:46.322Z,97110.88
2023-05-17T20:42:18.071Z,97100.53
2023-05-17T20:44:46.556Z,97101.09
2023-05-17T20:47:17.710Z,97096.28
2023-05-17T20:49:47.842Z,97011.59
2023-05-17T20:52:22.065Z,97093.34
2023-05-17T20:55:01.356Z,97096.03
2023-05-17T20:57:30.613Z,97103.34
2023-05-17T20:59:58.782Z,97105.41
2023-05-17T21:02:26.727Z,97108.78
2023-05-17T21:04:55.049Z,97101.09
2023-05-17T21:07:27.590Z,97106.69
2023-05-17T21:09:55.659Z,97101.38
2023-05-17T21:12:24.997Z,97106.53
2023-05-17T21:15:14.539Z,97104.56
2023-05-17T21:17:43.492Z,97105.34
2023-05-17T21:20:14.066Z,97101.69
2023-05-17T21:22:44.933Z,97105.22
2023-05-17T21:25:14.743Z,97094.91
2023-05-17T21:27:45.036Z,97097.38
2023-05-17T21:30:14.854Z,97100.22
2023-05-17T21:32:55.106Z,97097.84
2023-05-17T21:35:30.142Z,97090.69
2023-05-17T21:37:58.006Z,97086.75
2023-05-17T21:40:32.978Z,97072.94
2023-05-17T21:43:01.288Z,97084.75
2023-05-17T21:45:31.122Z,97083.22
2023-05-17T21:48:01.402Z,97082.63
2023-05-17T21:50:29.287Z,97077.84
2023-05-17T21:52:57.310Z,97071.66
2023-05-17T21:55:32.487Z,97080.84
2023-05-17T21:58:16.278Z,97071.47
2023-05-17T22:00:45.526Z,97076.09
2023-05-17T22:03:13.522Z,97087.56
2023-05-17T22:05:46.727Z,97081.09
2023-05-17T22:08:14.642Z,97097.47
2023-05-17T22:10:44.563Z,97085.47
2023-05-17T22:13:18.780Z,97027.38
2023-05-17T22:15:48.745Z,97083.84
2023-05-17T22:18:19.480Z,97093.63
2023-05-17T22:20:53.417Z,97086.91
2023-05-17T22:23:21.344Z,97079.66
2023-05-17T22:25:49.103Z,97083.31
2023-05-17T22:28:17.043Z,97081.03
2023-05-17T22:30:46.536Z,97083.09
2023-05-17T22:33:18.555Z,97080.28
2023-05-17T22:35:48.940Z,97086.22
2023-05-17T22:38:19.314Z,97085.34
2023-05-17T22:40:51.444Z,97084.16
2023-05-17T22:43:21.531Z,97085.06
2023-05-17T22:46:00.158Z,97089.53
2023-05-17T22:48:41.332Z,97060.78
2023-05-17T22:51:13.967Z,97079.69
2023-05-17T22:53:42.146Z,97089.91
2023-05-17T22:56:15.187Z,97084.94
2023-05-17T22:58:44.348Z,97074.78
2023-05-17T23:01:14.327Z,97087.75
2023-05-17T23:03:43.729Z,97086.28
2023-05-17T23:06:21.894Z,97085.84
2023-05-17T23:08:54.264Z,97079.53
2023-05-17T23:11:22.540Z,97075.38
2023-05-17T23:13:50.787Z,97078.72
2023-05-17T23:16:26.017Z,97067.47
2023-05-17T23:19:09.003Z,97053.44
2023-05-17T23:21:42.388Z,97074.41
2023-05-17T23:24:14.105Z,97075.78
2023-05-17T23:26:51.189Z,97034.59
2023-05-17T23:29:22.015Z,97064.47
2023-05-17T23:31:50.706Z,97069.09
2023-05-17T23:34:25.996Z,97071.97
2023-05-17T23:36:53.799Z,97075.94
2023-05-17T23:39:27.358Z,97071.44
2023-05-17T23:41:58.267Z,97067.78
2023-05-17T23:44:27.509Z,97068.34
2023-05-17T23:46:58.532Z,97069.06
2023-05-17T23:49:29.055Z,97069.31
2023-05-17T23:51:59.654Z,97075.09
2023-05-17T23:54:28.413Z,97063.97
2023-05-17T23:56:56.485Z,97065.47
2023-05-17T23:59:27.104Z,97059.31
